This is the latest recevied weather packets stored in our database for station/object BM6HML-1. If no packets are shown the sender has not sent any weather packets the latest 1 day(s).
| Time | Temp. | Humidity | Pressure | Rain* | Wind** | Luminosity | Snow |
|---|---|---|---|---|---|---|---|
| 1778100860 | 31.67° C | 74% | 1010.7 hPa | - | - | - | - |
| 1778098465 | 31.67° C | 75% | 1010.4 hPa | - | - | - | - |
| 1778094860 | 31.67° C | 75% | 1010.1 hPa | - | - | - | - |
| 1778092460 | 31.67° C | 74% | 1010.1 hPa | - | - | - | - |
| 1778084060 | 32.22° C | 72% | 1010.8 hPa | - | - | - | - |
| 1778081660 | 32.22° C | 74% | 1011.2 hPa | - | - | - | - |
| 1778079260 | 31.67° C | 79% | 1011.5 hPa | - | - | - | - |
| 1778069660 | 32.22° C | 73% | 1010.8 hPa | - | - | - | - |
| 1778067260 | 32.22° C | 73% | 1010.3 hPa | - | - | - | - |
| 1778064860 | 32.22° C | 72% | 1009.8 hPa | - | - | - | - |
| 1778061260 | 32.78° C | 72% | 1009.3 hPa | - | - | - | - |
| 1778058860 | 32.22° C | 73% | 1009.1 hPa | - | - | - | - |
| 1778056460 | 32.22° C | 76% | 1008.7 hPa | - | - | - | - |
| 1778055260 | 32.22° C | 77% | 1008.9 hPa | - | - | - | - |
| 1778052860 | 32.22° C | 75% | 1008.9 hPa | - | - | - | - |
| 1778051660 | 32.22° C | 74% | 1008.8 hPa | - | - | - | - |
| 1778050460 | 32.22° C | 75% | 1009.1 hPa | - | - | - | - |
| 1778048060 | 31.67° C | 78% | 1009.4 hPa | - | - | - | - |
| 1778045660 | 30.56° C | 79% | 1009.7 hPa | - | - | - | - |
| 1778043260 | 30.56° C | 80% | 1010 hPa | - | - | - | - |
| 1778042060 | 30.56° C | 80% | 1010.2 hPa | - | - | - | - |
| 1778040860 | 30.56° C | 80% | 1010.4 hPa | - | - | - | - |
| 1778039660 | 30° C | 80% | 1010.6 hPa | - | - | - | - |
| 1778037260 | 30.56° C | 75% | 1010.8 hPa | - | - | - | - |
| 1778036059 | 30.56° C | 74% | 1011 hPa | - | - | - | - |
* Rain since midnight (hover to see other rain measurements)
** Current wind speed in m/s (hover to see current wind gust speed)